• Join FlightAware (Why Join?)
  • Login
  • US Flag 
12:57AM EST


 

Airport Tracker/Info


-or-


 

Live Flight TrackerFlight Track Log ✈ WWW456 ✈ 06-May-2013 ✈ KLAS - KTNX

Flight Track Log - Related Links

Times and Time Zones

All times are in EDT time to prevent confusion due to time zone crossing. See the WWW456 flight status page for this flight to view local times or setup timezone preferences in your user account.

Time Position Orientation Groundspeed Altitude Reporting Facility
EDT Latitude Longitude Course Direction KTS MPH feet Rate Location/Type
08:10AM 36.0717 -115.1775 277° West 146 168 3,400  Level Los Angeles Center
08:13AM 36.0894 -115.3481 277° West 272 313 8,700 2,340 Climbing Los Angeles Center
08:14AM 36.1600 -115.4069 326° Northwest 301 346 10,900 1,740 Climbing Los Angeles Center
08:16AM 36.3283 -115.5531 325° Northwest 388 447 14,100 1,020 Climbing Los Angeles Center
08:17AM 36.4333 -115.5747 351° North 394 453 14,000 -60 Descending Los Angeles Center
08:18AM 36.5381 -115.5872 355° North 380 437 14,000  Level Los Angeles Center
08:19AM 36.6306 -115.5942 357° North 356 410 14,100 60 Climbing Los Angeles Center
08:21AM 36.7681 -115.7313 321° Northwest  Level Estimated
08:28AM 37.2917 -116.2597 321° Northwest  Level Estimated
08:29AM 37.3663 -116.3357 321° Northwest  Level Estimated
08:30AM 37.4409 -116.4120 321° Northwest  Level Estimated
08:31AM 37.5154 -116.4884 321° Northwest  Level Estimated
08:32AM 37.5899 -116.5649 321° Northwest  Level Estimated
08:33AM 37.6643 -116.6416 321° Northwest  Level Estimated
08:34AM 37.7387 -116.7184 321° Northwest  Level Estimated
08:35AM 37.7989 -116.7807 321° Northwest  Level Estimated
08:36AM 37.7989 -116.7807 257° West  Level Estimated
08:37AM 37.7989 -116.7807 257° West  Level Estimated
08:38AM 37.7989 -116.7807 257° West  Level Estimated
08:39AM 37.7989 -116.7807 257° West  Level Estimated
08:40AM 37.7989 -116.7807 257° West  Level Estimated